sensor_id;sensor_type;location;lat;lon;timestamp;pressure;altitude;pressure_sealevel;temperature;humidity
13367;BME280;6752;52.612;13.630;2023-02-19T00:00:06;100781.46;;;5.19;100.00
13367;BME280;6752;52.612;13.630;2023-02-19T00:05:08;100789.32;;;5.21;100.00
13367;BME280;6752;52.612;13.630;2023-02-19T00:10:10;100777.41;;;5.19;100.00
13367;BME280;6752;52.612;13.630;2023-02-19T00:15:13;100773.39;;;5.15;100.00
13367;BME280;6752;52.612;13.630;2023-02-19T00:20:15;100782.05;;;5.22;100.00
13367;BME280;6752;52.612;13.630;2023-02-19T00:25:17;100776.05;;;5.12;100.00
13367;BME280;6752;52.612;13.630;2023-02-19T00:30:20;100774.04;;;5.03;100.00
13367;BME280;6752;52.612;13.630;2023-02-19T00:35:22;100771.84;;;5.02;100.00
13367;BME280;6752;52.612;13.630;2023-02-19T00:40:27;100776.09;;;4.96;100.00
13367;BME280;6752;52.612;13.630;2023-02-19T00:45:29;100766.67;;;4.92;100.00
13367;BME280;6752;52.612;13.630;2023-02-19T00:50:32;100766.25;;;4.84;100.00
13367;BME280;6752;52.612;13.630;2023-02-19T00:55:34;100751.84;;;4.81;100.00
13367;BME280;6752;52.612;13.630;2023-02-19T01:00:37;100763.53;;;4.77;100.00
13367;BME280;6752;52.612;13.630;2023-02-19T01:05:39;100769.12;;;4.71;100.00
13367;BME280;6752;52.612;13.630;2023-02-19T01:10:41;100758.36;;;4.79;100.00
13367;BME280;6752;52.612;13.630;2023-02-19T01:15:47;100754.12;;;4.69;100.00
13367;BME280;6752;52.612;13.630;2023-02-19T01:20:46;100742.48;;;4.68;100.00
13367;BME280;6752;52.612;13.630;2023-02-19T01:25:48;100734.47;;;4.68;100.00
13367;BME280;6752;52.612;13.630;2023-02-19T01:30:51;100724.84;;;4.69;100.00
13367;BME280;6752;52.612;13.630;2023-02-19T01:35:53;100716.36;;;4.76;100.00
13367;BME280;6752;52.612;13.630;2023-02-19T01:40:56;100720.77;;;4.62;100.00
13367;BME280;6752;52.612;13.630;2023-02-19T01:45:58;100711.94;;;4.68;100.00
13367;BME280;6752;52.612;13.630;2023-02-19T01:51:12;100697.69;;;4.59;100.00
13367;BME280;6752;52.612;13.630;2023-02-19T01:56:08;100703.87;;;4.56;100.00
13367;BME280;6752;52.612;13.630;2023-02-19T02:01:11;100704.92;;;4.51;100.00
13367;BME280;6752;52.612;13.630;2023-02-19T02:11:16;100686.95;;;4.40;100.00
13367;BME280;6752;52.612;13.630;2023-02-19T02:16:26;100670.85;;;4.39;100.00
13367;BME280;6752;52.612;13.630;2023-02-19T02:27:00;100671.47;;;4.22;100.00
13367;BME280;6752;52.612;13.630;2023-02-19T02:32:11;100670.13;;;4.22;100.00
13367;BME280;6752;52.612;13.630;2023-02-19T02:37:13;100680.77;;;4.20;100.00
13367;BME280;6752;52.612;13.630;2023-02-19T02:42:15;100678.58;;;4.19;100.00
13367;BME280;6752;52.612;13.630;2023-02-19T02:47:35;100674.69;;;4.10;100.00
13367;BME280;6752;52.612;13.630;2023-02-19T02:52:44;100676.84;;;4.15;100.00
13367;BME280;6752;52.612;13.630;2023-02-19T02:58:04;100687.64;;;4.03;100.00
13367;BME280;6752;52.612;13.630;2023-02-19T03:03:07;100699.14;;;3.93;100.00
13367;BME280;6752;52.612;13.630;2023-02-19T03:08:11;100697.92;;;4.04;100.00
13367;BME280;6752;52.612;13.630;2023-02-19T03:13:14;100685.96;;;3.98;100.00
13367;BME280;6752;52.612;13.630;2023-02-19T03:18:32;100701.03;;;4.00;100.00
13367;BME280;6752;52.612;13.630;2023-02-19T03:23:52;100705.37;;;3.94;100.00
13367;BME280;6752;52.612;13.630;2023-02-19T03:29:13;100711.94;;;3.95;100.00
13367;BME280;6752;52.612;13.630;2023-02-19T03:34:37;100713.22;;;3.80;100.00
13367;BME280;6752;52.612;13.630;2023-02-19T03:39:41;100708.25;;;3.81;100.00
13367;BME280;6752;52.612;13.630;2023-02-19T03:45:04;100701.57;;;3.84;100.00
13367;BME280;6752;52.612;13.630;2023-02-19T04:01:01;100717.08;;;3.62;100.00
13367;BME280;6752;52.612;13.630;2023-02-19T04:06:01;100712.72;;;3.53;100.00
13367;BME280;6752;52.612;13.630;2023-02-19T04:11:03;100712.49;;;3.47;100.00
13367;BME280;6752;52.612;13.630;2023-02-19T04:16:10;100727.45;;;3.34;100.00
13367;BME280;6752;52.612;13.630;2023-02-19T04:21:11;100727.27;;;3.40;100.00
13367;BME280;6752;52.612;13.630;2023-02-19T04:26:13;100725.01;;;3.28;100.00
13367;BME280;6752;52.612;13.630;2023-02-19T04:31:16;100740.49;;;3.30;100.00
13367;BME280;6752;52.612;13.630;2023-02-19T04:36:18;100744.20;;;3.37;100.00
13367;BME280;6752;52.612;13.630;2023-02-19T04:41:20;100745.66;;;3.32;100.00
13367;BME280;6752;52.612;13.630;2023-02-19T04:46:22;100745.41;;;3.22;100.00
13367;BME280;6752;52.612;13.630;2023-02-19T04:51:25;100750.86;;;3.26;100.00
13367;BME280;6752;52.612;13.630;2023-02-19T04:56:27;100762.95;;;3.10;100.00
13367;BME280;6752;52.612;13.630;2023-02-19T05:01:29;100770.09;;;3.02;100.00
13367;BME280;6752;52.612;13.630;2023-02-19T05:06:32;100775.41;;;2.91;100.00
13367;BME280;6752;52.612;13.630;2023-02-19T05:11:34;100768.52;;;2.84;100.00
13367;BME280;6752;52.612;13.630;2023-02-19T05:16:37;100764.38;;;2.77;100.00
13367;BME280;6752;52.612;13.630;2023-02-19T05:21:39;100763.11;;;2.80;100.00
13367;BME280;6752;52.612;13.630;2023-02-19T05:26:41;100761.86;;;2.92;100.00
13367;BME280;6752;52.612;13.630;2023-02-19T05:31:44;100753.45;;;2.91;100.00
13367;BME280;6752;52.612;13.630;2023-02-19T05:36:46;100761.68;;;2.77;100.00
13367;BME280;6752;52.612;13.630;2023-02-19T05:41:49;100765.05;;;2.75;100.00
13367;BME280;6752;52.612;13.630;2023-02-19T05:46:51;100770.86;;;2.71;100.00
13367;BME280;6752;52.612;13.630;2023-02-19T05:51:53;100765.90;;;2.67;100.00
13367;BME280;6752;52.612;13.630;2023-02-19T05:56:56;100762.02;;;2.74;100.00
13367;BME280;6752;52.612;13.630;2023-02-19T06:01:58;100766.06;;;2.74;100.00
13367;BME280;6752;52.612;13.630;2023-02-19T06:07:00;100768.16;;;2.83;100.00
13367;BME280;6752;52.612;13.630;2023-02-19T06:12:03;100764.95;;;2.84;100.00
13367;BME280;6752;52.612;13.630;2023-02-19T06:17:09;100761.28;;;2.85;100.00
13367;BME280;6752;52.612;13.630;2023-02-19T06:22:07;100766.14;;;2.77;100.00
13367;BME280;6752;52.612;13.630;2023-02-19T06:27:10;100767.48;;;2.77;100.00
13367;BME280;6752;52.612;13.630;2023-02-19T06:32:12;100784.56;;;2.81;100.00
13367;BME280;6752;52.612;13.630;2023-02-19T06:37:15;100797.52;;;2.73;100.00
13367;BME280;6752;52.612;13.630;2023-02-19T06:42:17;100809.13;;;2.78;100.00
13367;BME280;6752;52.612;13.630;2023-02-19T06:47:19;100828.30;;;2.80;100.00
13367;BME280;6752;52.612;13.630;2023-02-19T06:52:22;100821.41;;;2.81;100.00
13367;BME280;6752;52.612;13.630;2023-02-19T06:57:24;100824.44;;;2.77;100.00
13367;BME280;6752;52.612;13.630;2023-02-19T07:02:26;100836.80;;;2.83;100.00
13367;BME280;6752;52.612;13.630;2023-02-19T07:07:28;100836.13;;;2.77;100.00
13367;BME280;6752;52.612;13.630;2023-02-19T07:12:31;100845.25;;;2.84;100.00
13367;BME280;6752;52.612;13.630;2023-02-19T07:17:33;100865.02;;;2.88;100.00
13367;BME280;6752;52.612;13.630;2023-02-19T07:22:35;100882.27;;;2.95;100.00
13367;BME280;6752;52.612;13.630;2023-02-19T07:27:38;100883.10;;;3.07;100.00
13367;BME280;6752;52.612;13.630;2023-02-19T07:32:40;100885.32;;;3.08;100.00
13367;BME280;6752;52.612;13.630;2023-02-19T07:37:42;100901.64;;;3.22;100.00
13367;BME280;6752;52.612;13.630;2023-02-19T07:42:45;100896.95;;;3.33;100.00
13367;BME280;6752;52.612;13.630;2023-02-19T07:47:47;100900.12;;;3.28;100.00
13367;BME280;6752;52.612;13.630;2023-02-19T07:52:50;100902.24;;;3.42;100.00
13367;BME280;6752;52.612;13.630;2023-02-19T07:57:52;100908.88;;;3.46;100.00
13367;BME280;6752;52.612;13.630;2023-02-19T08:02:54;100932.31;;;3.38;100.00
13367;BME280;6752;52.612;13.630;2023-02-19T08:08:04;100938.95;;;3.43;100.00
13367;BME280;6752;52.612;13.630;2023-02-19T08:13:05;100949.25;;;3.55;100.00
13367;BME280;6752;52.612;13.630;2023-02-19T08:18:22;100951.33;;;3.68;100.00
13367;BME280;6752;52.612;13.630;2023-02-19T08:23:24;100979.14;;;3.57;100.00
13367;BME280;6752;52.612;13.630;2023-02-19T08:28:27;100977.85;;;3.93;100.00
13367;BME280;6752;52.612;13.630;2023-02-19T08:33:29;100995.81;;;3.65;100.00
13367;BME280;6752;52.612;13.630;2023-02-19T08:38:35;100999.50;;;4.00;100.00
13367;BME280;6752;52.612;13.630;2023-02-19T08:43:37;101011.53;;;4.17;100.00
13367;BME280;6752;52.612;13.630;2023-02-19T08:48:39;101011.22;;;4.72;100.00
13367;BME280;6752;52.612;13.630;2023-02-19T08:53:41;101021.19;;;4.39;100.00
13367;BME280;6752;52.612;13.630;2023-02-19T08:58:44;101043.59;;;4.48;100.00
13367;BME280;6752;52.612;13.630;2023-02-19T09:03:46;101046.47;;;4.46;100.00
13367;BME280;6752;52.612;13.630;2023-02-19T09:08:48;101051.36;;;4.47;100.00
13367;BME280;6752;52.612;13.630;2023-02-19T09:13:51;101060.41;;;4.43;100.00
13367;BME280;6752;52.612;13.630;2023-02-19T09:18:53;101058.53;;;4.55;100.00
13367;BME280;6752;52.612;13.630;2023-02-19T09:23:55;101061.60;;;4.36;100.00
13367;BME280;6752;52.612;13.630;2023-02-19T09:28:57;101081.08;;;4.39;100.00
13367;BME280;6752;52.612;13.630;2023-02-19T09:34:00;101073.21;;;4.57;100.00
13367;BME280;6752;52.612;13.630;2023-02-19T09:39:02;101065.23;;;4.68;100.00
13367;BME280;6752;52.612;13.630;2023-02-19T09:44:05;101075.47;;;5.12;100.00
13367;BME280;6752;52.612;13.630;2023-02-19T09:49:23;101077.24;;;5.12;100.00
13367;BME280;6752;52.612;13.630;2023-02-19T09:54:28;101082.70;;;5.35;100.00
13367;BME280;6752;52.612;13.630;2023-02-19T09:59:41;101088.04;;;6.13;100.00
13367;BME280;6752;52.612;13.630;2023-02-19T10:04:32;101099.72;;;5.44;100.00
13367;BME280;6752;52.612;13.630;2023-02-19T10:09:34;101107.09;;;6.00;100.00
13367;BME280;6752;52.612;13.630;2023-02-19T10:14:41;101115.05;;;6.09;100.00
13367;BME280;6752;52.612;13.630;2023-02-19T10:19:41;101121.33;;;5.79;100.00
13367;BME280;6752;52.612;13.630;2023-02-19T10:24:44;101131.49;;;5.77;100.00
13367;BME280;6752;52.612;13.630;2023-02-19T10:29:46;101141.98;;;6.56;100.00
13367;BME280;6752;52.612;13.630;2023-02-19T10:40:15;101166.05;;;6.62;100.00
13367;BME280;6752;52.612;13.630;2023-02-19T10:45:26;101170.83;;;7.35;100.00
13367;BME280;6752;52.612;13.630;2023-02-19T10:50:32;101180.70;;;6.72;100.00
13367;BME280;6752;52.612;13.630;2023-02-19T10:55:34;101190.47;;;6.96;100.00
13367;BME280;6752;52.612;13.630;2023-02-19T11:00:36;101181.05;;;8.23;100.00
13367;BME280;6752;52.612;13.630;2023-02-19T11:05:38;101191.49;;;7.94;100.00
13367;BME280;6752;52.612;13.630;2023-02-19T11:10:40;101204.46;;;7.33;100.00
13367;BME280;6752;52.612;13.630;2023-02-19T11:15:49;101201.68;;;8.17;100.00
13367;BME280;6752;52.612;13.630;2023-02-19T11:20:49;101219.33;;;7.30;100.00
13367;BME280;6752;52.612;13.630;2023-02-19T11:25:49;101226.06;;;7.12;100.00
13367;BME280;6752;52.612;13.630;2023-02-19T11:30:52;101244.73;;;6.57;100.00
13367;BME280;6752;52.612;13.630;2023-02-19T11:41:34;101248.20;;;6.70;100.00
13367;BME280;6752;52.612;13.630;2023-02-19T11:46:49;101252.30;;;6.43;99.75
13367;BME280;6752;52.612;13.630;2023-02-19T11:51:55;101257.20;;;6.13;100.00
13367;BME280;6752;52.612;13.630;2023-02-19T12:02:31;101256.78;;;6.85;100.00
13367;BME280;6752;52.612;13.630;2023-02-19T12:18:21;101257.42;;;6.23;99.11
13367;BME280;6752;52.612;13.630;2023-02-19T12:23:36;101267.31;;;6.34;100.00
13367;BME280;6752;52.612;13.630;2023-02-19T12:28:43;101268.88;;;6.17;100.00
13367;BME280;6752;52.612;13.630;2023-02-19T12:39:27;101277.45;;;7.05;100.00
13367;BME280;6752;52.612;13.630;2023-02-19T12:44:32;101279.45;;;7.07;100.00
13367;BME280;6752;52.612;13.630;2023-02-19T12:49:36;101280.19;;;6.93;97.84
13367;BME280;6752;52.612;13.630;2023-02-19T12:54:49;101271.74;;;7.07;95.75
13367;BME280;6752;52.612;13.630;2023-02-19T12:59:53;101285.44;;;7.21;93.50
13367;BME280;6752;52.612;13.630;2023-02-19T13:05:04;101287.30;;;7.02;89.24
13367;BME280;6752;52.612;13.630;2023-02-19T13:15:40;101295.16;;;7.16;87.78
13367;BME280;6752;52.612;13.630;2023-02-19T13:20:42;101300.72;;;7.18;88.27
13367;BME280;6752;52.612;13.630;2023-02-19T13:36:44;101322.34;;;6.96;88.24
13367;BME280;6752;52.612;13.630;2023-02-19T13:41:58;101320.94;;;6.54;85.29
13367;BME280;6752;52.612;13.630;2023-02-19T13:47:00;101323.16;;;6.66;89.87
13367;BME280;6752;52.612;13.630;2023-02-19T13:57:29;101327.67;;;6.63;92.60
13367;BME280;6752;52.612;13.630;2023-02-19T14:02:32;101336.66;;;6.82;89.26
13367;BME280;6752;52.612;13.630;2023-02-19T14:07:48;101358.55;;;6.61;89.90
13367;BME280;6752;52.612;13.630;2023-02-19T14:12:49;101363.37;;;6.51;86.35
13367;BME280;6752;52.612;13.630;2023-02-19T14:17:51;101365.62;;;6.43;86.40
13367;BME280;6752;52.612;13.630;2023-02-19T14:23:42;101372.42;;;6.50;85.30
13367;BME280;6752;52.612;13.630;2023-02-19T14:33:13;101368.92;;;6.22;83.34
13367;BME280;6752;52.612;13.630;2023-02-19T14:38:27;101366.33;;;6.17;84.94
13367;BME280;6752;52.612;13.630;2023-02-19T14:43:27;101370.70;;;5.91;87.79
13367;BME280;6752;52.612;13.630;2023-02-19T14:48:33;101368.42;;;5.83;87.06
13367;BME280;6752;52.612;13.630;2023-02-19T14:53:42;101373.53;;;5.74;86.94
13367;BME280;6752;52.612;13.630;2023-02-19T14:58:40;101379.95;;;5.64;86.42
13367;BME280;6752;52.612;13.630;2023-02-19T15:03:42;101377.91;;;5.66;88.53
13367;BME280;6752;52.612;13.630;2023-02-19T15:08:48;101384.52;;;5.72;84.46
13367;BME280;6752;52.612;13.630;2023-02-19T15:13:50;101397.18;;;5.67;84.94
13367;BME280;6752;52.612;13.630;2023-02-19T15:18:52;101396.53;;;5.69;82.24
13367;BME280;6752;52.612;13.630;2023-02-19T15:23:57;101397.95;;;5.73;80.79
13367;BME280;6752;52.612;13.630;2023-02-19T15:29:00;101413.09;;;5.42;78.70
13367;BME280;6752;52.612;13.630;2023-02-19T15:34:02;101406.69;;;5.31;80.56
13367;BME280;6752;52.612;13.630;2023-02-19T15:39:05;101413.01;;;5.43;79.66
13367;BME280;6752;52.612;13.630;2023-02-19T15:44:15;101408.04;;;5.31;80.29
13367;BME280;6752;52.612;13.630;2023-02-19T15:49:16;101414.52;;;5.13;80.54
13367;BME280;6752;52.612;13.630;2023-02-19T15:54:41;101419.34;;;5.14;82.53
13367;BME280;6752;52.612;13.630;2023-02-19T15:59:37;101428.88;;;5.01;82.93
13367;BME280;6752;52.612;13.630;2023-02-19T16:04:38;101437.66;;;4.99;82.53
13367;BME280;6752;52.612;13.630;2023-02-19T16:09:40;101446.59;;;4.66;86.36
13367;BME280;6752;52.612;13.630;2023-02-19T16:14:42;101464.64;;;4.49;87.01
13367;BME280;6752;52.612;13.630;2023-02-19T16:19:57;101471.50;;;4.31;88.14
13367;BME280;6752;52.612;13.630;2023-02-19T16:25:04;101477.56;;;4.16;88.28
13367;BME280;6752;52.612;13.630;2023-02-19T16:35:37;101492.27;;;3.96;88.07
13367;BME280;6752;52.612;13.630;2023-02-19T16:40:53;101497.31;;;3.95;91.80
13367;BME280;6752;52.612;13.630;2023-02-19T16:45:45;101505.58;;;3.80;92.88
13367;BME280;6752;52.612;13.630;2023-02-19T16:50:47;101511.05;;;3.62;94.95
13367;BME280;6752;52.612;13.630;2023-02-19T16:55:49;101510.61;;;3.57;98.02
13367;BME280;6752;52.612;13.630;2023-02-19T17:00:51;101528.48;;;3.18;100.00
13367;BME280;6752;52.612;13.630;2023-02-19T17:05:54;101542.37;;;2.96;100.00
13367;BME280;6752;52.612;13.630;2023-02-19T17:10:56;101535.06;;;2.97;100.00
13367;BME280;6752;52.612;13.630;2023-02-19T17:15:58;101531.33;;;2.94;100.00
13367;BME280;6752;52.612;13.630;2023-02-19T17:26:22;101542.23;;;2.60;100.00
13367;BME280;6752;52.612;13.630;2023-02-19T17:31:20;101546.88;;;2.54;100.00
13367;BME280;6752;52.612;13.630;2023-02-19T17:36:24;101549.14;;;2.54;100.00
13367;BME280;6752;52.612;13.630;2023-02-19T17:41:25;101547.50;;;2.43;100.00
13367;BME280;6752;52.612;13.630;2023-02-19T17:46:27;101557.34;;;2.34;100.00
13367;BME280;6752;52.612;13.630;2023-02-19T17:51:30;101559.86;;;2.68;100.00
13367;BME280;6752;52.612;13.630;2023-02-19T17:56:32;101563.13;;;2.81;100.00
13367;BME280;6752;52.612;13.630;2023-02-19T18:01:34;101565.25;;;2.87;99.29
13367;BME280;6752;52.612;13.630;2023-02-19T18:06:37;101562.63;;;2.81;99.64
13367;BME280;6752;52.612;13.630;2023-02-19T18:11:42;101572.67;;;2.70;100.00
13367;BME280;6752;52.612;13.630;2023-02-19T18:16:45;101576.89;;;2.77;100.00
13367;BME280;6752;52.612;13.630;2023-02-19T18:21:47;101582.92;;;2.75;100.00
13367;BME280;6752;52.612;13.630;2023-02-19T18:26:49;101582.08;;;2.75;100.00
13367;BME280;6752;52.612;13.630;2023-02-19T18:31:51;101588.23;;;2.76;100.00
13367;BME280;6752;52.612;13.630;2023-02-19T18:36:53;101588.78;;;2.66;100.00
13367;BME280;6752;52.612;13.630;2023-02-19T18:41:55;101595.27;;;2.50;100.00
13367;BME280;6752;52.612;13.630;2023-02-19T18:46:58;101598.45;;;2.49;100.00
13367;BME280;6752;52.612;13.630;2023-02-19T18:52:00;101594.20;;;2.52;100.00
13367;BME280;6752;52.612;13.630;2023-02-19T18:57:02;101587.97;;;2.51;100.00
13367;BME280;6752;52.612;13.630;2023-02-19T19:02:05;101593.94;;;2.45;100.00
13367;BME280;6752;52.612;13.630;2023-02-19T19:07:08;101595.71;;;2.45;100.00
13367;BME280;6752;52.612;13.630;2023-02-19T19:12:10;101594.14;;;2.48;100.00
13367;BME280;6752;52.612;13.630;2023-02-19T19:17:12;101590.03;;;2.48;100.00
13367;BME280;6752;52.612;13.630;2023-02-19T19:22:14;101603.64;;;2.47;100.00
13367;BME280;6752;52.612;13.630;2023-02-19T19:27:18;101599.28;;;2.55;100.00
13367;BME280;6752;52.612;13.630;2023-02-19T19:32:19;101599.94;;;2.53;100.00
13367;BME280;6752;52.612;13.630;2023-02-19T19:37:22;101597.91;;;2.46;100.00
13367;BME280;6752;52.612;13.630;2023-02-19T19:42:24;101599.97;;;2.43;100.00
13367;BME280;6752;52.612;13.630;2023-02-19T19:47:26;101595.29;;;2.45;100.00
13367;BME280;6752;52.612;13.630;2023-02-19T19:52:29;101588.48;;;2.46;100.00
13367;BME280;6752;52.612;13.630;2023-02-19T19:57:31;101586.09;;;2.43;100.00
13367;BME280;6752;52.612;13.630;2023-02-19T20:02:35;101588.70;;;2.43;100.00
13367;BME280;6752;52.612;13.630;2023-02-19T20:07:38;101581.65;;;2.38;100.00
13367;BME280;6752;52.612;13.630;2023-02-19T20:12:40;101582.05;;;2.43;100.00
13367;BME280;6752;52.612;13.630;2023-02-19T20:17:43;101589.16;;;2.53;100.00
13367;BME280;6752;52.612;13.630;2023-02-19T20:22:45;101587.89;;;2.52;100.00
13367;BME280;6752;52.612;13.630;2023-02-19T20:27:48;101597.81;;;2.51;100.00
13367;BME280;6752;52.612;13.630;2023-02-19T20:32:50;101598.81;;;2.50;100.00
13367;BME280;6752;52.612;13.630;2023-02-19T20:37:52;101601.15;;;2.49;100.00
13367;BME280;6752;52.612;13.630;2023-02-19T20:42:55;101607.40;;;2.35;100.00
13367;BME280;6752;52.612;13.630;2023-02-19T20:47:57;101614.62;;;2.35;100.00
13367;BME280;6752;52.612;13.630;2023-02-19T20:52:59;101613.30;;;2.40;100.00
13367;BME280;6752;52.612;13.630;2023-02-19T20:58:02;101609.83;;;2.38;100.00
13367;BME280;6752;52.612;13.630;2023-02-19T21:03:04;101607.13;;;2.43;100.00
13367;BME280;6752;52.612;13.630;2023-02-19T21:08:06;101613.78;;;2.44;100.00
13367;BME280;6752;52.612;13.630;2023-02-19T21:13:09;101615.63;;;2.57;100.00
13367;BME280;6752;52.612;13.630;2023-02-19T21:18:11;101613.73;;;2.63;100.00
13367;BME280;6752;52.612;13.630;2023-02-19T21:23:13;101601.84;;;2.61;100.00
13367;BME280;6752;52.612;13.630;2023-02-19T21:28:15;101595.86;;;2.67;100.00
13367;BME280;6752;52.612;13.630;2023-02-19T21:33:18;101578.84;;;2.71;100.00
13367;BME280;6752;52.612;13.630;2023-02-19T21:38:20;101570.80;;;2.75;100.00
13367;BME280;6752;52.612;13.630;2023-02-19T21:43:22;101566.80;;;2.71;100.00
13367;BME280;6752;52.612;13.630;2023-02-19T21:48:24;101564.58;;;2.61;100.00
13367;BME280;6752;52.612;13.630;2023-02-19T21:53:27;101557.67;;;2.68;100.00
13367;BME280;6752;52.612;13.630;2023-02-19T21:58:29;101555.03;;;2.72;100.00
13367;BME280;6752;52.612;13.630;2023-02-19T22:03:34;101555.44;;;2.90;100.00
13367;BME280;6752;52.612;13.630;2023-02-19T22:08:37;101536.64;;;2.95;100.00
13367;BME280;6752;52.612;13.630;2023-02-19T22:13:39;101528.25;;;2.98;100.00
13367;BME280;6752;52.612;13.630;2023-02-19T22:18:51;101515.20;;;2.98;100.00
13367;BME280;6752;52.612;13.630;2023-02-19T22:23:53;101502.23;;;3.20;100.00
13367;BME280;6752;52.612;13.630;2023-02-19T22:28:55;101506.59;;;3.03;100.00
13367;BME280;6752;52.612;13.630;2023-02-19T22:33:58;101507.43;;;2.95;100.00
13367;BME280;6752;52.612;13.630;2023-02-19T22:39:00;101517.02;;;2.93;100.00
13367;BME280;6752;52.612;13.630;2023-02-19T22:44:02;101521.36;;;2.90;100.00
13367;BME280;6752;52.612;13.630;2023-02-19T22:49:05;101531.93;;;2.60;100.00
13367;BME280;6752;52.612;13.630;2023-02-19T22:54:07;101539.83;;;2.67;100.00
13367;BME280;6752;52.612;13.630;2023-02-19T22:59:09;101544.39;;;2.61;100.00
13367;BME280;6752;52.612;13.630;2023-02-19T23:04:12;101555.58;;;2.61;100.00
13367;BME280;6752;52.612;13.630;2023-02-19T23:09:18;101548.77;;;2.57;100.00
13367;BME280;6752;52.612;13.630;2023-02-19T23:14:19;101538.58;;;2.56;100.00
13367;BME280;6752;52.612;13.630;2023-02-19T23:19:22;101541.34;;;2.74;100.00
13367;BME280;6752;52.612;13.630;2023-02-19T23:24:24;101522.51;;;2.60;100.00
13367;BME280;6752;52.612;13.630;2023-02-19T23:29:27;101525.32;;;2.59;100.00
13367;BME280;6752;52.612;13.630;2023-02-19T23:34:29;101513.43;;;2.56;100.00
13367;BME280;6752;52.612;13.630;2023-02-19T23:39:31;101516.45;;;2.67;100.00
13367;BME280;6752;52.612;13.630;2023-02-19T23:44:33;101503.02;;;2.62;100.00
13367;BME280;6752;52.612;13.630;2023-02-19T23:49:36;101494.37;;;2.64;100.00
13367;BME280;6752;52.612;13.630;2023-02-19T23:54:38;101480.80;;;2.69;100.00
13367;BME280;6752;52.612;13.630;2023-02-19T23:59:40;101481.72;;;2.69;100.00
